sensor_id;sensor_type;location;lat;lon;timestamp;pressure;altitude;pressure_sealevel;temperature;humidity
71903;BME280;59778;50.310;18.780;2023-03-18T00:08:19;98997.75;;;2.82;62.90
71903;BME280;59778;50.310;18.780;2023-03-18T00:23:40;99008.50;;;2.92;62.35
71903;BME280;59778;50.310;18.780;2023-03-18T00:39:02;98988.72;;;2.74;62.96
71903;BME280;59778;50.310;18.780;2023-03-18T00:54:24;98976.56;;;2.51;64.82
71903;BME280;59778;50.310;18.780;2023-03-18T01:09:45;98965.69;;;2.33;67.35
71903;BME280;59778;50.310;18.780;2023-03-18T01:25:08;98944.38;;;2.22;66.90
71903;BME280;59778;50.310;18.780;2023-03-18T01:40:34;98939.00;;;2.12;66.41
71903;BME280;59778;50.310;18.780;2023-03-18T01:55:56;98930.00;;;2.13;66.14
71903;BME280;59778;50.310;18.780;2023-03-18T02:11:18;98924.53;;;1.75;67.83
71903;BME280;59778;50.310;18.780;2023-03-18T02:26:59;98922.44;;;1.48;68.62
71903;BME280;59778;50.310;18.780;2023-03-18T02:42:29;98908.22;;;1.48;68.38
71903;BME280;59778;50.310;18.780;2023-03-18T02:57:51;98932.81;;;1.11;70.60
71903;BME280;59778;50.310;18.780;2023-03-18T03:13:12;98931.06;;;1.21;70.54
71903;BME280;59778;50.310;18.780;2023-03-18T03:28:34;98940.91;;;1.21;69.50
71903;BME280;59778;50.310;18.780;2023-03-18T03:43:55;98936.16;;;1.04;70.68
71903;BME280;59778;50.310;18.780;2023-03-18T03:59:17;98955.25;;;0.99;71.20
71903;BME280;59778;50.310;18.780;2023-03-18T04:14:38;98957.09;;;0.78;71.84
71903;BME280;59778;50.310;18.780;2023-03-18T04:30:00;98955.44;;;0.66;72.27
71903;BME280;59778;50.310;18.780;2023-03-18T04:45:21;98951.75;;;0.14;75.37
71903;BME280;59778;50.310;18.780;2023-03-18T05:00:43;98953.81;;;0.11;76.27
71903;BME280;59778;50.310;18.780;2023-03-18T05:16:05;98951.81;;;0.24;75.86
71903;BME280;59778;50.310;18.780;2023-03-18T05:31:27;98949.47;;;0.41;75.42
71903;BME280;59778;50.310;18.780;2023-03-18T05:46:48;98975.44;;;0.82;74.64
71903;BME280;59778;50.310;18.780;2023-03-18T06:02:11;98982.97;;;1.39;73.48
71903;BME280;59778;50.310;18.780;2023-03-18T06:17:33;98989.78;;;1.83;73.72
71903;BME280;59778;50.310;18.780;2023-03-18T06:32:55;98989.44;;;2.57;69.58
71903;BME280;59778;50.310;18.780;2023-03-18T06:48:17;99000.84;;;3.16;66.09
71903;BME280;59778;50.310;18.780;2023-03-18T07:03:39;99021.47;;;3.82;63.30
71903;BME280;59778;50.310;18.780;2023-03-18T07:19:02;99028.66;;;4.90;59.95
71903;BME280;59778;50.310;18.780;2023-03-18T07:34:24;99023.75;;;5.64;55.84
71903;BME280;59778;50.310;18.780;2023-03-18T07:49:45;99011.75;;;6.52;50.49
71903;BME280;59778;50.310;18.780;2023-03-18T08:05:07;99013.41;;;7.36;45.74
71903;BME280;59778;50.310;18.780;2023-03-18T08:20:29;99020.31;;;7.71;44.38
71903;BME280;59778;50.310;18.780;2023-03-18T08:35:50;99013.75;;;8.28;43.13
71903;BME280;59778;50.310;18.780;2023-03-18T08:51:12;99017.75;;;8.87;40.89
71903;BME280;59778;50.310;18.780;2023-03-18T09:06:33;99001.19;;;9.51;42.00
71903;BME280;59778;50.310;18.780;2023-03-18T09:21:55;98985.41;;;9.54;37.60
71903;BME280;59778;50.310;18.780;2023-03-18T09:37:17;98981.84;;;10.20;36.42
71903;BME280;59778;50.310;18.780;2023-03-18T10:39:46;98941.22;;;12.31;32.25
71903;BME280;59778;50.310;18.780;2023-03-18T10:55:15;98954.59;;;12.26;30.13
71903;BME280;59778;50.310;18.780;2023-03-18T11:10:43;98925.63;;;12.66;28.15
71903;BME280;59778;50.310;18.780;2023-03-18T11:26:08;98923.28;;;13.10;27.50
71903;BME280;59778;50.310;18.780;2023-03-18T11:41:30;98908.16;;;13.60;26.42
71903;BME280;59778;50.310;18.780;2023-03-18T11:57:18;98894.13;;;14.34;27.47
71903;BME280;59778;50.310;18.780;2023-03-18T13:06:50;98831.25;;;15.60;25.51
71903;BME280;59778;50.310;18.780;2023-03-18T13:54:02;98808.63;;;16.37;21.75
71903;BME280;59778;50.310;18.780;2023-03-18T14:09:34;98783.91;;;16.25;21.81
71903;BME280;59778;50.310;18.780;2023-03-18T14:40:39;98773.31;;;15.63;22.28
71903;BME280;59778;50.310;18.780;2023-03-18T14:56:02;98774.06;;;15.27;23.21
71903;BME280;59778;50.310;18.780;2023-03-18T15:11:24;98775.78;;;15.21;23.86
71903;BME280;59778;50.310;18.780;2023-03-18T15:26:55;98778.53;;;14.72;23.42
71903;BME280;59778;50.310;18.780;2023-03-18T15:42:18;98781.72;;;14.69;25.31
71903;BME280;59778;50.310;18.780;2023-03-18T15:57:42;98786.91;;;15.01;25.65
71903;BME280;59778;50.310;18.780;2023-03-18T16:13:03;98806.00;;;14.52;26.48
71903;BME280;59778;50.310;18.780;2023-03-18T16:28:26;98813.00;;;14.41;27.49
71903;BME280;59778;50.310;18.780;2023-03-18T16:43:48;98818.72;;;13.69;31.02
71903;BME280;59778;50.310;18.780;2023-03-18T16:59:11;98827.06;;;12.36;32.16
71903;BME280;59778;50.310;18.780;2023-03-18T17:14:36;98840.47;;;11.90;32.23
71903;BME280;59778;50.310;18.780;2023-03-18T17:29:59;98852.09;;;11.43;33.68
71903;BME280;59778;50.310;18.780;2023-03-18T17:45:29;98861.19;;;10.80;35.53
71903;BME280;59778;50.310;18.780;2023-03-18T18:00:53;98859.47;;;9.71;38.84
71903;BME280;59778;50.310;18.780;2023-03-18T18:16:15;98874.19;;;8.87;42.43
71903;BME280;59778;50.310;18.780;2023-03-18T18:31:36;98861.13;;;8.15;43.58
71903;BME280;59778;50.310;18.780;2023-03-18T18:46:58;98868.78;;;7.72;46.19
71903;BME280;59778;50.310;18.780;2023-03-18T19:02:30;98877.84;;;7.16;48.25
71903;BME280;59778;50.310;18.780;2023-03-18T19:17:53;98884.13;;;6.68;48.38
71903;BME280;59778;50.310;18.780;2023-03-18T19:33:16;98888.97;;;6.24;51.85
71903;BME280;59778;50.310;18.780;2023-03-18T19:48:37;98904.22;;;5.99;50.91
71903;BME280;59778;50.310;18.780;2023-03-18T20:03:59;98894.25;;;5.92;51.83
71903;BME280;59778;50.310;18.780;2023-03-18T20:19:20;98907.63;;;5.76;52.70
71903;BME280;59778;50.310;18.780;2023-03-18T20:34:42;98910.28;;;5.42;53.34
71903;BME280;59778;50.310;18.780;2023-03-18T20:50:05;98915.53;;;5.17;56.12
71903;BME280;59778;50.310;18.780;2023-03-18T21:05:26;98916.22;;;5.19;55.05
71903;BME280;59778;50.310;18.780;2023-03-18T21:20:48;98921.63;;;5.02;56.36
71903;BME280;59778;50.310;18.780;2023-03-18T21:36:10;98906.03;;;4.88;57.14
71903;BME280;59778;50.310;18.780;2023-03-18T21:51:32;98898.16;;;4.68;57.33
71903;BME280;59778;50.310;18.780;2023-03-18T22:06:55;98904.00;;;4.46;57.57
71903;BME280;59778;50.310;18.780;2023-03-18T22:22:19;98896.84;;;4.55;56.43
71903;BME280;59778;50.310;18.780;2023-03-18T22:37:41;98901.50;;;4.70;55.49
71903;BME280;59778;50.310;18.780;2023-03-18T22:53:05;98894.81;;;4.74;54.71
71903;BME280;59778;50.310;18.780;2023-03-18T23:08:27;98900.06;;;4.76;54.26
71903;BME280;59778;50.310;18.780;2023-03-18T23:23:49;98902.22;;;4.72;52.88
71903;BME280;59778;50.310;18.780;2023-03-18T23:39:11;98912.06;;;4.64;52.74
71903;BME280;59778;50.310;18.780;2023-03-18T23:54:33;98897.53;;;4.57;54.11
